sensor_id;sensor_type;location;lat;lon;timestamp;temperature;humidity
18648;DHT22;9453;50.294;18.644;2023-09-19T04:03:26;19.30;99.90
18648;DHT22;9453;50.294;18.644;2023-09-19T04:06:00;19.30;99.90
18648;DHT22;9453;50.294;18.644;2023-09-19T04:08:28;19.20;99.90
18648;DHT22;9453;50.294;18.644;2023-09-19T04:10:55;19.20;99.90
18648;DHT22;9453;50.294;18.644;2023-09-19T04:13:22;19.20;99.90
18648;DHT22;9453;50.294;18.644;2023-09-19T04:15:49;19.20;99.90
18648;DHT22;9453;50.294;18.644;2023-09-19T04:18:16;19.10;99.90
18648;DHT22;9453;50.294;18.644;2023-09-19T04:20:49;19.10;99.90
18648;DHT22;9453;50.294;18.644;2023-09-19T04:23:16;19.10;99.90
18648;DHT22;9453;50.294;18.644;2023-09-19T04:25:45;19.10;99.90
18648;DHT22;9453;50.294;18.644;2023-09-19T04:28:12;19.00;99.90
18648;DHT22;9453;50.294;18.644;2023-09-19T04:30:39;19.00;99.90
18648;DHT22;9453;50.294;18.644;2023-09-19T04:33:07;19.00;99.90
18648;DHT22;9453;50.294;18.644;2023-09-19T04:35:34;19.00;99.90
18648;DHT22;9453;50.294;18.644;2023-09-19T04:38:02;19.00;99.90
18648;DHT22;9453;50.294;18.644;2023-09-19T04:40:31;19.00;99.90
18648;DHT22;9453;50.294;18.644;2023-09-19T04:42:59;19.00;99.90
18648;DHT22;9453;50.294;18.644;2023-09-19T04:45:27;19.00;99.90
18648;DHT22;9453;50.294;18.644;2023-09-19T04:47:55;19.00;99.90
18648;DHT22;9453;50.294;18.644;2023-09-19T04:50:22;19.00;99.90
18648;DHT22;9453;50.294;18.644;2023-09-19T04:52:53;18.90;99.90
18648;DHT22;9453;50.294;18.644;2023-09-19T04:55:21;18.90;99.90
18648;DHT22;9453;50.294;18.644;2023-09-19T04:57:49;18.90;99.90
18648;DHT22;9453;50.294;18.644;2023-09-19T05:00:19;18.90;99.90
18648;DHT22;9453;50.294;18.644;2023-09-19T05:02:49;18.80;99.90
18648;DHT22;9453;50.294;18.644;2023-09-19T05:05:16;18.80;99.90
18648;DHT22;9453;50.294;18.644;2023-09-19T05:07:45;18.80;99.90
18648;DHT22;9453;50.294;18.644;2023-09-19T05:10:13;18.80;99.90
18648;DHT22;9453;50.294;18.644;2023-09-19T05:12:41;18.90;99.90
18648;DHT22;9453;50.294;18.644;2023-09-19T05:15:11;18.90;99.90
18648;DHT22;9453;50.294;18.644;2023-09-19T05:17:37;19.00;99.90
18648;DHT22;9453;50.294;18.644;2023-09-19T05:20:06;19.00;99.90
18648;DHT22;9453;50.294;18.644;2023-09-19T05:22:41;19.00;99.90
18648;DHT22;9453;50.294;18.644;2023-09-19T05:25:09;18.90;99.90
18648;DHT22;9453;50.294;18.644;2023-09-19T05:27:36;18.80;99.90
18648;DHT22;9453;50.294;18.644;2023-09-19T05:30:06;18.80;99.90
18648;DHT22;9453;50.294;18.644;2023-09-19T05:32:35;18.80;99.90
18648;DHT22;9453;50.294;18.644;2023-09-19T05:35:03;18.70;99.90
18648;DHT22;9453;50.294;18.644;2023-09-19T05:37:33;18.80;99.90
18648;DHT22;9453;50.294;18.644;2023-09-19T05:40:03;18.80;99.90
18648;DHT22;9453;50.294;18.644;2023-09-19T05:42:35;18.70;99.90
18648;DHT22;9453;50.294;18.644;2023-09-19T05:45:02;18.80;99.90
18648;DHT22;9453;50.294;18.644;2023-09-19T05:47:32;18.70;99.90
18648;DHT22;9453;50.294;18.644;2023-09-19T05:50:00;18.70;99.90
18648;DHT22;9453;50.294;18.644;2023-09-19T05:52:28;18.70;99.90
18648;DHT22;9453;50.294;18.644;2023-09-19T05:54:55;18.70;99.90
18648;DHT22;9453;50.294;18.644;2023-09-19T05:57:23;18.70;99.90
18648;DHT22;9453;50.294;18.644;2023-09-19T05:59:50;18.70;99.90
18648;DHT22;9453;50.294;18.644;2023-09-19T06:02:17;18.80;99.90
18648;DHT22;9453;50.294;18.644;2023-09-19T06:04:46;18.80;99.90
18648;DHT22;9453;50.294;18.644;2023-09-19T06:07:13;18.90;99.90
18648;DHT22;9453;50.294;18.644;2023-09-19T06:09:42;19.00;99.90
18648;DHT22;9453;50.294;18.644;2023-09-19T06:12:09;19.00;99.90
18648;DHT22;9453;50.294;18.644;2023-09-19T06:14:39;19.10;99.90
18648;DHT22;9453;50.294;18.644;2023-09-19T06:17:07;19.10;99.90
18648;DHT22;9453;50.294;18.644;2023-09-19T06:19:34;19.10;99.90
18648;DHT22;9453;50.294;18.644;2023-09-19T06:22:02;19.10;99.90
18648;DHT22;9453;50.294;18.644;2023-09-19T06:24:29;19.10;99.90
18648;DHT22;9453;50.294;18.644;2023-09-19T06:26:56;19.10;99.90
18648;DHT22;9453;50.294;18.644;2023-09-19T06:29:26;19.10;99.90
18648;DHT22;9453;50.294;18.644;2023-09-19T06:31:53;19.10;99.90
18648;DHT22;9453;50.294;18.644;2023-09-19T06:34:20;19.10;99.90
18648;DHT22;9453;50.294;18.644;2023-09-19T06:36:48;19.20;99.90
18648;DHT22;9453;50.294;18.644;2023-09-19T06:39:16;19.20;99.90
18648;DHT22;9453;50.294;18.644;2023-09-19T06:41:43;19.20;99.90
18648;DHT22;9453;50.294;18.644;2023-09-19T06:44:11;19.30;99.90
18648;DHT22;9453;50.294;18.644;2023-09-19T06:46:38;19.20;99.90
18648;DHT22;9453;50.294;18.644;2023-09-19T06:49:07;19.20;99.90
18648;DHT22;9453;50.294;18.644;2023-09-19T06:51:36;19.20;99.90
18648;DHT22;9453;50.294;18.644;2023-09-19T06:54:03;19.20;99.90
18648;DHT22;9453;50.294;18.644;2023-09-19T06:56:32;19.20;99.90
18648;DHT22;9453;50.294;18.644;2023-09-19T06:58:59;19.20;99.90
18648;DHT22;9453;50.294;18.644;2023-09-19T07:01:28;19.20;99.90
18648;DHT22;9453;50.294;18.644;2023-09-19T07:03:55;19.20;99.90
18648;DHT22;9453;50.294;18.644;2023-09-19T07:06:22;19.30;99.90
18648;DHT22;9453;50.294;18.644;2023-09-19T07:08:49;19.20;99.90
18648;DHT22;9453;50.294;18.644;2023-09-19T07:11:17;19.30;99.90
18648;DHT22;9453;50.294;18.644;2023-09-19T07:13:45;19.20;99.90
18648;DHT22;9453;50.294;18.644;2023-09-19T07:16:13;19.10;99.90
18648;DHT22;9453;50.294;18.644;2023-09-19T07:18:52;19.10;99.90
18648;DHT22;9453;50.294;18.644;2023-09-19T07:21:20;19.20;99.90
18648;DHT22;9453;50.294;18.644;2023-09-19T07:23:47;19.20;99.90
18648;DHT22;9453;50.294;18.644;2023-09-19T07:26:15;19.10;99.90
18648;DHT22;9453;50.294;18.644;2023-09-19T07:28:42;19.10;99.90
18648;DHT22;9453;50.294;18.644;2023-09-19T07:31:11;19.00;99.90
18648;DHT22;9453;50.294;18.644;2023-09-19T07:33:40;19.10;99.90
18648;DHT22;9453;50.294;18.644;2023-09-19T07:36:10;19.00;99.90
18648;DHT22;9453;50.294;18.644;2023-09-19T07:38:39;19.00;99.90
18648;DHT22;9453;50.294;18.644;2023-09-19T07:41:07;19.10;99.90
18648;DHT22;9453;50.294;18.644;2023-09-19T07:43:35;19.10;99.90
18648;DHT22;9453;50.294;18.644;2023-09-19T07:46:05;19.00;99.90
18648;DHT22;9453;50.294;18.644;2023-09-19T07:48:35;19.10;99.90
18648;DHT22;9453;50.294;18.644;2023-09-19T07:51:04;19.10;99.90
18648;DHT22;9453;50.294;18.644;2023-09-19T07:53:31;19.10;99.90
18648;DHT22;9453;50.294;18.644;2023-09-19T07:56:04;19.10;99.90
18648;DHT22;9453;50.294;18.644;2023-09-19T07:58:31;19.10;99.90
18648;DHT22;9453;50.294;18.644;2023-09-19T08:01:03;19.10;99.90
18648;DHT22;9453;50.294;18.644;2023-09-19T08:03:30;19.10;99.90
18648;DHT22;9453;50.294;18.644;2023-09-19T08:05:59;19.10;99.90
18648;DHT22;9453;50.294;18.644;2023-09-19T08:08:26;19.20;99.90
18648;DHT22;9453;50.294;18.644;2023-09-19T08:10:53;19.30;99.90
18648;DHT22;9453;50.294;18.644;2023-09-19T08:13:22;19.40;99.90
18648;DHT22;9453;50.294;18.644;2023-09-19T08:15:49;19.40;99.90
18648;DHT22;9453;50.294;18.644;2023-09-19T08:18:18;19.30;99.90
18648;DHT22;9453;50.294;18.644;2023-09-19T08:20:50;19.30;99.90
18648;DHT22;9453;50.294;18.644;2023-09-19T08:23:19;19.40;99.90
18648;DHT22;9453;50.294;18.644;2023-09-19T08:25:47;19.30;99.90
18648;DHT22;9453;50.294;18.644;2023-09-19T08:28:14;19.40;99.90
18648;DHT22;9453;50.294;18.644;2023-09-19T08:30:45;19.40;99.90
18648;DHT22;9453;50.294;18.644;2023-09-19T08:33:12;19.50;99.90
18648;DHT22;9453;50.294;18.644;2023-09-19T08:35:40;19.60;99.90
18648;DHT22;9453;50.294;18.644;2023-09-19T08:38:09;19.70;99.90
18648;DHT22;9453;50.294;18.644;2023-09-19T08:40:38;19.80;99.90
18648;DHT22;9453;50.294;18.644;2023-09-19T08:43:07;19.80;99.90
18648;DHT22;9453;50.294;18.644;2023-09-19T08:45:35;19.90;99.90
18648;DHT22;9453;50.294;18.644;2023-09-19T08:48:15;20.00;99.90
18648;DHT22;9453;50.294;18.644;2023-09-19T08:50:47;20.10;99.90
18648;DHT22;9453;50.294;18.644;2023-09-19T08:53:19;20.10;99.90
18648;DHT22;9453;50.294;18.644;2023-09-19T08:55:51;20.10;99.90
18648;DHT22;9453;50.294;18.644;2023-09-19T08:58:20;20.10;99.90
18648;DHT22;9453;50.294;18.644;2023-09-19T09:00:48;20.10;99.90
18648;DHT22;9453;50.294;18.644;2023-09-19T09:03:18;20.10;99.90
18648;DHT22;9453;50.294;18.644;2023-09-19T09:05:47;20.20;99.90
18648;DHT22;9453;50.294;18.644;2023-09-19T09:08:18;20.30;99.90
18648;DHT22;9453;50.294;18.644;2023-09-19T09:10:48;20.40;99.90
18648;DHT22;9453;50.294;18.644;2023-09-19T09:13:17;20.40;99.90
18648;DHT22;9453;50.294;18.644;2023-09-19T09:15:44;20.50;99.90
18648;DHT22;9453;50.294;18.644;2023-09-19T09:18:11;20.50;99.90
18648;DHT22;9453;50.294;18.644;2023-09-19T09:20:39;20.60;99.90
18648;DHT22;9453;50.294;18.644;2023-09-19T09:23:06;20.70;99.90
18648;DHT22;9453;50.294;18.644;2023-09-19T09:25:53;20.80;99.90
18648;DHT22;9453;50.294;18.644;2023-09-19T09:28:22;20.70;99.90
18648;DHT22;9453;50.294;18.644;2023-09-19T09:30:51;20.70;99.90
18648;DHT22;9453;50.294;18.644;2023-09-19T09:33:18;20.70;99.90
18648;DHT22;9453;50.294;18.644;2023-09-19T09:35:51;20.70;99.90
18648;DHT22;9453;50.294;18.644;2023-09-19T09:38:23;20.60;99.90
18648;DHT22;9453;50.294;18.644;2023-09-19T09:40:55;20.70;99.90
18648;DHT22;9453;50.294;18.644;2023-09-19T09:43:29;20.50;99.90
18648;DHT22;9453;50.294;18.644;2023-09-19T09:46:07;20.60;99.90
18648;DHT22;9453;50.294;18.644;2023-09-19T09:48:59;20.70;99.90
18648;DHT22;9453;50.294;18.644;2023-09-19T09:51:47;20.70;99.90
18648;DHT22;9453;50.294;18.644;2023-09-19T09:54:24;20.70;99.90
18648;DHT22;9453;50.294;18.644;2023-09-19T09:56:59;20.70;99.90
18648;DHT22;9453;50.294;18.644;2023-09-19T09:59:45;20.70;99.90
18648;DHT22;9453;50.294;18.644;2023-09-19T10:02:13;20.60;99.90
18648;DHT22;9453;50.294;18.644;2023-09-19T10:04:41;20.50;99.90
18648;DHT22;9453;50.294;18.644;2023-09-19T10:07:27;20.30;99.90
18648;DHT22;9453;50.294;18.644;2023-09-19T10:09:58;20.20;99.90
18648;DHT22;9453;50.294;18.644;2023-09-19T10:12:40;20.20;99.90
18648;DHT22;9453;50.294;18.644;2023-09-19T10:15:10;20.20;99.90
18648;DHT22;9453;50.294;18.644;2023-09-19T10:17:42;20.20;99.90
18648;DHT22;9453;50.294;18.644;2023-09-19T10:20:13;20.10;99.90
18648;DHT22;9453;50.294;18.644;2023-09-19T10:23:05;20.10;99.90
18648;DHT22;9453;50.294;18.644;2023-09-19T10:25:40;20.10;99.90
18648;DHT22;9453;50.294;18.644;2023-09-19T10:28:11;20.20;99.90
18648;DHT22;9453;50.294;18.644;2023-09-19T10:30:41;20.10;99.90
18648;DHT22;9453;50.294;18.644;2023-09-19T10:33:11;20.10;99.90
18648;DHT22;9453;50.294;18.644;2023-09-19T10:35:40;20.10;99.90
18648;DHT22;9453;50.294;18.644;2023-09-19T10:38:10;20.20;99.90
18648;DHT22;9453;50.294;18.644;2023-09-19T10:40:38;20.20;99.90
18648;DHT22;9453;50.294;18.644;2023-09-19T10:43:12;20.10;99.90
18648;DHT22;9453;50.294;18.644;2023-09-19T10:45:40;20.00;99.90
18648;DHT22;9453;50.294;18.644;2023-09-19T10:48:08;19.90;99.90
18648;DHT22;9453;50.294;18.644;2023-09-19T10:50:44;19.90;99.90
18648;DHT22;9453;50.294;18.644;2023-09-19T10:53:16;20.00;99.90
18648;DHT22;9453;50.294;18.644;2023-09-19T10:55:50;20.00;99.90
18648;DHT22;9453;50.294;18.644;2023-09-19T10:58:31;19.90;99.90
18648;DHT22;9453;50.294;18.644;2023-09-19T11:01:00;19.90;99.90
18648;DHT22;9453;50.294;18.644;2023-09-19T11:03:38;19.90;99.90
18648;DHT22;9453;50.294;18.644;2023-09-19T11:06:11;20.00;99.90
18648;DHT22;9453;50.294;18.644;2023-09-19T11:08:54;20.10;99.90
18648;DHT22;9453;50.294;18.644;2023-09-19T11:11:44;20.20;99.90
18648;DHT22;9453;50.294;18.644;2023-09-19T11:14:41;20.20;99.90
18648;DHT22;9453;50.294;18.644;2023-09-19T11:17:40;20.40;99.90
18648;DHT22;9453;50.294;18.644;2023-09-19T11:20:24;20.50;99.90
18648;DHT22;9453;50.294;18.644;2023-09-19T11:23:21;20.50;99.90
18648;DHT22;9453;50.294;18.644;2023-09-19T11:25:56;20.70;99.90
18648;DHT22;9453;50.294;18.644;2023-09-19T11:28:30;20.60;99.90
18648;DHT22;9453;50.294;18.644;2023-09-19T11:30:58;20.50;99.90
18648;DHT22;9453;50.294;18.644;2023-09-19T11:33:26;20.50;99.90
18648;DHT22;9453;50.294;18.644;2023-09-19T11:36:02;20.70;99.90
18648;DHT22;9453;50.294;18.644;2023-09-19T11:38:57;20.90;99.90
18648;DHT22;9453;50.294;18.644;2023-09-19T11:41:39;21.00;99.90
18648;DHT22;9453;50.294;18.644;2023-09-19T11:44:31;21.20;99.90
18648;DHT22;9453;50.294;18.644;2023-09-19T11:47:01;21.10;99.90
18648;DHT22;9453;50.294;18.644;2023-09-19T11:49:30;21.10;99.90
18648;DHT22;9453;50.294;18.644;2023-09-19T11:52:02;21.10;99.90
18648;DHT22;9453;50.294;18.644;2023-09-19T11:54:31;21.10;99.90
18648;DHT22;9453;50.294;18.644;2023-09-19T11:56:59;21.30;99.90
18648;DHT22;9453;50.294;18.644;2023-09-19T11:59:29;21.20;99.90
18648;DHT22;9453;50.294;18.644;2023-09-19T12:01:58;21.20;99.90
18648;DHT22;9453;50.294;18.644;2023-09-19T12:04:37;21.40;99.90
18648;DHT22;9453;50.294;18.644;2023-09-19T12:07:08;21.50;99.90
18648;DHT22;9453;50.294;18.644;2023-09-19T12:09:41;21.50;99.90
18648;DHT22;9453;50.294;18.644;2023-09-19T12:12:10;21.50;99.90
18648;DHT22;9453;50.294;18.644;2023-09-19T12:14:41;21.70;99.90
18648;DHT22;9453;50.294;18.644;2023-09-19T12:17:09;21.80;99.90
18648;DHT22;9453;50.294;18.644;2023-09-19T12:19:37;21.70;99.90
18648;DHT22;9453;50.294;18.644;2023-09-19T12:25:06;21.90;99.90
18648;DHT22;9453;50.294;18.644;2023-09-19T12:27:41;22.00;99.90
18648;DHT22;9453;50.294;18.644;2023-09-19T12:30:11;22.20;99.90
18648;DHT22;9453;50.294;18.644;2023-09-19T12:32:40;22.30;99.90
18648;DHT22;9453;50.294;18.644;2023-09-19T12:35:09;22.30;99.90
18648;DHT22;9453;50.294;18.644;2023-09-19T12:37:37;22.30;99.90
18648;DHT22;9453;50.294;18.644;2023-09-19T12:40:06;22.30;99.90
18648;DHT22;9453;50.294;18.644;2023-09-19T12:42:43;22.20;99.90
18648;DHT22;9453;50.294;18.644;2023-09-19T12:45:11;22.20;99.90
18648;DHT22;9453;50.294;18.644;2023-09-19T12:47:39;22.10;99.90
18648;DHT22;9453;50.294;18.644;2023-09-19T12:50:11;22.20;99.90
18648;DHT22;9453;50.294;18.644;2023-09-19T12:52:44;22.30;99.90
18648;DHT22;9453;50.294;18.644;2023-09-19T12:55:24;22.40;99.90
18648;DHT22;9453;50.294;18.644;2023-09-19T12:58:07;22.50;99.90
18648;DHT22;9453;50.294;18.644;2023-09-19T13:00:37;22.60;99.90
18648;DHT22;9453;50.294;18.644;2023-09-19T13:03:15;22.70;99.90
18648;DHT22;9453;50.294;18.644;2023-09-19T13:05:53;22.70;99.90
18648;DHT22;9453;50.294;18.644;2023-09-19T13:08:22;22.70;99.90
18648;DHT22;9453;50.294;18.644;2023-09-19T13:11:06;22.60;99.90
18648;DHT22;9453;50.294;18.644;2023-09-19T13:13:36;22.60;99.90
18648;DHT22;9453;50.294;18.644;2023-09-19T13:16:04;22.40;99.90
18648;DHT22;9453;50.294;18.644;2023-09-19T13:18:42;22.00;99.90
18648;DHT22;9453;50.294;18.644;2023-09-19T13:21:13;21.90;99.90
18648;DHT22;9453;50.294;18.644;2023-09-19T13:23:50;21.60;99.90
18648;DHT22;9453;50.294;18.644;2023-09-19T13:26:17;21.50;99.90
18648;DHT22;9453;50.294;18.644;2023-09-19T13:28:45;21.30;99.90
18648;DHT22;9453;50.294;18.644;2023-09-19T13:31:13;21.30;99.90
18648;DHT22;9453;50.294;18.644;2023-09-19T13:33:44;21.30;99.90
18648;DHT22;9453;50.294;18.644;2023-09-19T13:36:12;21.20;99.90
18648;DHT22;9453;50.294;18.644;2023-09-19T13:38:40;21.20;99.90
18648;DHT22;9453;50.294;18.644;2023-09-19T13:41:08;21.30;99.90
18648;DHT22;9453;50.294;18.644;2023-09-19T13:43:35;21.40;99.90
18648;DHT22;9453;50.294;18.644;2023-09-19T13:46:02;21.80;99.90
18648;DHT22;9453;50.294;18.644;2023-09-19T13:48:29;22.10;99.90
18648;DHT22;9453;50.294;18.644;2023-09-19T13:50:56;22.30;99.90
18648;DHT22;9453;50.294;18.644;2023-09-19T13:53:24;22.40;99.90
18648;DHT22;9453;50.294;18.644;2023-09-19T13:55:51;22.50;99.90
18648;DHT22;9453;50.294;18.644;2023-09-19T13:58:19;22.70;99.90
18648;DHT22;9453;50.294;18.644;2023-09-19T14:00:47;22.90;99.90
18648;DHT22;9453;50.294;18.644;2023-09-19T14:03:13;23.00;99.90
18648;DHT22;9453;50.294;18.644;2023-09-19T14:05:41;23.00;99.90
18648;DHT22;9453;50.294;18.644;2023-09-19T14:08:08;22.90;99.90
18648;DHT22;9453;50.294;18.644;2023-09-19T14:10:37;23.00;99.90
18648;DHT22;9453;50.294;18.644;2023-09-19T14:13:04;22.90;99.90
18648;DHT22;9453;50.294;18.644;2023-09-19T14:15:31;22.70;99.90
18648;DHT22;9453;50.294;18.644;2023-09-19T14:18:00;22.40;99.90
18648;DHT22;9453;50.294;18.644;2023-09-19T14:20:28;22.00;99.90
18648;DHT22;9453;50.294;18.644;2023-09-19T14:22:56;21.70;99.90
18648;DHT22;9453;50.294;18.644;2023-09-19T14:25:24;21.40;99.90
18648;DHT22;9453;50.294;18.644;2023-09-19T14:27:52;21.00;99.90
18648;DHT22;9453;50.294;18.644;2023-09-19T14:30:20;20.60;99.90
18648;DHT22;9453;50.294;18.644;2023-09-19T14:32:47;20.30;99.90
18648;DHT22;9453;50.294;18.644;2023-09-19T14:35:15;20.10;99.90
18648;DHT22;9453;50.294;18.644;2023-09-19T14:37:42;20.20;99.90
18648;DHT22;9453;50.294;18.644;2023-09-19T14:40:11;19.90;99.90
18648;DHT22;9453;50.294;18.644;2023-09-19T14:42:41;19.60;99.90
18648;DHT22;9453;50.294;18.644;2023-09-19T14:45:11;19.40;99.90
18648;DHT22;9453;50.294;18.644;2023-09-19T14:47:40;19.30;99.90
18648;DHT22;9453;50.294;18.644;2023-09-19T14:50:08;19.30;99.90
18648;DHT22;9453;50.294;18.644;2023-09-19T14:52:35;19.40;99.90
18648;DHT22;9453;50.294;18.644;2023-09-19T14:55:02;19.40;99.90
18648;DHT22;9453;50.294;18.644;2023-09-19T14:57:30;19.60;99.90
18648;DHT22;9453;50.294;18.644;2023-09-19T14:59:57;19.70;99.90
18648;DHT22;9453;50.294;18.644;2023-09-19T15:02:27;19.80;99.90
18648;DHT22;9453;50.294;18.644;2023-09-19T15:04:54;19.90;99.90
18648;DHT22;9453;50.294;18.644;2023-09-19T15:07:21;20.00;99.90
18648;DHT22;9453;50.294;18.644;2023-09-19T15:09:48;20.10;99.90
18648;DHT22;9453;50.294;18.644;2023-09-19T15:12:14;20.20;99.90
18648;DHT22;9453;50.294;18.644;2023-09-19T15:14:42;20.30;99.90
18648;DHT22;9453;50.294;18.644;2023-09-19T15:17:09;20.40;99.90
18648;DHT22;9453;50.294;18.644;2023-09-19T15:19:37;20.50;99.90
18648;DHT22;9453;50.294;18.644;2023-09-19T15:22:04;20.50;99.90
18648;DHT22;9453;50.294;18.644;2023-09-19T15:24:32;20.60;99.90
18648;DHT22;9453;50.294;18.644;2023-09-19T15:27:00;20.60;99.90
18648;DHT22;9453;50.294;18.644;2023-09-19T15:29:27;20.70;99.90
18648;DHT22;9453;50.294;18.644;2023-09-19T15:31:55;20.70;99.90
18648;DHT22;9453;50.294;18.644;2023-09-19T15:34:24;20.80;99.90
18648;DHT22;9453;50.294;18.644;2023-09-19T15:36:53;20.90;99.90
18648;DHT22;9453;50.294;18.644;2023-09-19T15:39:20;20.90;99.90
18648;DHT22;9453;50.294;18.644;2023-09-19T15:41:48;20.80;99.90
18648;DHT22;9453;50.294;18.644;2023-09-19T15:44:18;20.70;99.90
18648;DHT22;9453;50.294;18.644;2023-09-19T15:46:45;20.60;99.90
18648;DHT22;9453;50.294;18.644;2023-09-19T15:49:13;20.50;99.90
18648;DHT22;9453;50.294;18.644;2023-09-19T15:51:39;20.30;99.90
18648;DHT22;9453;50.294;18.644;2023-09-19T15:54:12;20.20;99.90
18648;DHT22;9453;50.294;18.644;2023-09-19T15:56:40;20.10;99.90
18648;DHT22;9453;50.294;18.644;2023-09-19T15:59:08;20.00;99.90
18648;DHT22;9453;50.294;18.644;2023-09-19T16:01:38;20.00;99.90
18648;DHT22;9453;50.294;18.644;2023-09-19T16:04:06;19.80;99.90
18648;DHT22;9453;50.294;18.644;2023-09-19T16:06:36;19.70;99.90
18648;DHT22;9453;50.294;18.644;2023-09-19T16:09:04;19.70;99.90
18648;DHT22;9453;50.294;18.644;2023-09-19T16:11:34;19.60;99.90
18648;DHT22;9453;50.294;18.644;2023-09-19T16:14:02;19.50;99.90
18648;DHT22;9453;50.294;18.644;2023-09-19T16:16:30;19.50;99.90
18648;DHT22;9453;50.294;18.644;2023-09-19T16:18:59;19.40;99.90
18648;DHT22;9453;50.294;18.644;2023-09-19T16:21:27;19.30;99.90
18648;DHT22;9453;50.294;18.644;2023-09-19T16:23:55;19.10;99.90
18648;DHT22;9453;50.294;18.644;2023-09-19T16:26:24;19.10;99.90
18648;DHT22;9453;50.294;18.644;2023-09-19T16:28:54;19.10;99.90
18648;DHT22;9453;50.294;18.644;2023-09-19T16:31:22;18.90;99.90
18648;DHT22;9453;50.294;18.644;2023-09-19T16:33:49;18.70;99.90
18648;DHT22;9453;50.294;18.644;2023-09-19T16:36:17;18.80;99.90
18648;DHT22;9453;50.294;18.644;2023-09-19T16:38:46;18.70;99.90
18648;DHT22;9453;50.294;18.644;2023-09-19T16:41:15;18.60;99.90
18648;DHT22;9453;50.294;18.644;2023-09-19T16:43:43;18.50;99.90
18648;DHT22;9453;50.294;18.644;2023-09-19T16:46:12;18.40;99.90
18648;DHT22;9453;50.294;18.644;2023-09-19T16:48:42;18.40;99.90
18648;DHT22;9453;50.294;18.644;2023-09-19T16:51:12;18.30;99.90
18648;DHT22;9453;50.294;18.644;2023-09-19T16:53:40;18.20;99.90
18648;DHT22;9453;50.294;18.644;2023-09-19T16:56:08;18.10;99.90
18648;DHT22;9453;50.294;18.644;2023-09-19T16:58:36;18.10;99.90
18648;DHT22;9453;50.294;18.644;2023-09-19T17:01:03;18.00;99.90
18648;DHT22;9453;50.294;18.644;2023-09-19T17:03:31;17.90;99.90
18648;DHT22;9453;50.294;18.644;2023-09-19T17:06:01;17.80;99.90
18648;DHT22;9453;50.294;18.644;2023-09-19T17:08:29;17.80;99.90
18648;DHT22;9453;50.294;18.644;2023-09-19T17:11:01;17.80;99.90
18648;DHT22;9453;50.294;18.644;2023-09-19T17:13:28;17.70;99.90
18648;DHT22;9453;50.294;18.644;2023-09-19T17:16:05;17.70;99.90
18648;DHT22;9453;50.294;18.644;2023-09-19T17:18:35;17.60;99.90
18648;DHT22;9453;50.294;18.644;2023-09-19T17:21:03;17.60;99.90
18648;DHT22;9453;50.294;18.644;2023-09-19T17:23:31;17.50;99.90
18648;DHT22;9453;50.294;18.644;2023-09-19T17:26:00;17.50;99.90
18648;DHT22;9453;50.294;18.644;2023-09-19T17:28:28;17.50;99.90
18648;DHT22;9453;50.294;18.644;2023-09-19T17:30:56;17.40;99.90
18648;DHT22;9453;50.294;18.644;2023-09-19T17:33:24;17.40;99.90
18648;DHT22;9453;50.294;18.644;2023-09-19T17:36:03;17.30;99.90
18648;DHT22;9453;50.294;18.644;2023-09-19T17:38:31;17.30;99.90
18648;DHT22;9453;50.294;18.644;2023-09-19T17:41:01;17.20;99.90
18648;DHT22;9453;50.294;18.644;2023-09-19T17:43:28;17.20;99.90
18648;DHT22;9453;50.294;18.644;2023-09-19T17:45:55;17.20;99.90
18648;DHT22;9453;50.294;18.644;2023-09-19T17:48:22;17.10;99.90
18648;DHT22;9453;50.294;18.644;2023-09-19T17:51:00;17.10;99.90
18648;DHT22;9453;50.294;18.644;2023-09-19T17:53:27;17.10;99.90
18648;DHT22;9453;50.294;18.644;2023-09-19T17:55:54;17.10;99.90
18648;DHT22;9453;50.294;18.644;2023-09-19T17:58:21;17.10;99.90
18648;DHT22;9453;50.294;18.644;2023-09-19T18:00:48;17.10;99.90
18648;DHT22;9453;50.294;18.644;2023-09-19T18:03:15;17.10;99.90
18648;DHT22;9453;50.294;18.644;2023-09-19T18:05:43;17.10;99.90
18648;DHT22;9453;50.294;18.644;2023-09-19T18:08:12;17.10;99.90
18648;DHT22;9453;50.294;18.644;2023-09-19T18:10:39;17.10;99.90
18648;DHT22;9453;50.294;18.644;2023-09-19T18:13:06;17.00;99.90
18648;DHT22;9453;50.294;18.644;2023-09-19T18:15:35;17.00;99.90
18648;DHT22;9453;50.294;18.644;2023-09-19T18:18:04;17.00;99.90
18648;DHT22;9453;50.294;18.644;2023-09-19T18:20:33;16.90;99.90
18648;DHT22;9453;50.294;18.644;2023-09-19T18:23:02;16.90;99.90
18648;DHT22;9453;50.294;18.644;2023-09-19T18:25:31;16.90;99.90
18648;DHT22;9453;50.294;18.644;2023-09-19T18:27:58;16.80;99.90
18648;DHT22;9453;50.294;18.644;2023-09-19T18:30:25;16.80;99.90
18648;DHT22;9453;50.294;18.644;2023-09-19T18:32:53;16.80;99.90
18648;DHT22;9453;50.294;18.644;2023-09-19T18:35:21;16.70;99.90
18648;DHT22;9453;50.294;18.644;2023-09-19T18:37:49;16.70;99.90
18648;DHT22;9453;50.294;18.644;2023-09-19T18:40:18;16.70;99.90
18648;DHT22;9453;50.294;18.644;2023-09-19T18:42:46;16.70;99.90
18648;DHT22;9453;50.294;18.644;2023-09-19T18:45:13;16.70;99.90
18648;DHT22;9453;50.294;18.644;2023-09-19T18:47:40;16.60;99.90
18648;DHT22;9453;50.294;18.644;2023-09-19T18:50:08;16.60;99.90
18648;DHT22;9453;50.294;18.644;2023-09-19T18:52:35;16.60;99.90
18648;DHT22;9453;50.294;18.644;2023-09-19T18:55:06;16.50;99.90
18648;DHT22;9453;50.294;18.644;2023-09-19T18:57:35;16.50;99.90
18648;DHT22;9453;50.294;18.644;2023-09-19T19:00:04;16.50;99.90
18648;DHT22;9453;50.294;18.644;2023-09-19T19:02:31;16.40;99.90
18648;DHT22;9453;50.294;18.644;2023-09-19T19:04:58;16.40;99.90
18648;DHT22;9453;50.294;18.644;2023-09-19T19:07:26;16.40;99.90
18648;DHT22;9453;50.294;18.644;2023-09-19T19:09:53;16.30;99.90
18648;DHT22;9453;50.294;18.644;2023-09-19T19:12:20;16.30;99.90
18648;DHT22;9453;50.294;18.644;2023-09-19T19:14:48;16.40;99.90
18648;DHT22;9453;50.294;18.644;2023-09-19T19:17:17;16.30;99.90
18648;DHT22;9453;50.294;18.644;2023-09-19T19:19:47;16.30;99.90
18648;DHT22;9453;50.294;18.644;2023-09-19T19:22:16;16.30;99.90
18648;DHT22;9453;50.294;18.644;2023-09-19T19:24:44;16.20;99.90
18648;DHT22;9453;50.294;18.644;2023-09-19T19:27:11;16.30;99.90
18648;DHT22;9453;50.294;18.644;2023-09-19T19:29:38;16.30;99.90
18648;DHT22;9453;50.294;18.644;2023-09-19T19:32:05;16.20;99.90
18648;DHT22;9453;50.294;18.644;2023-09-19T19:34:34;16.20;99.90
18648;DHT22;9453;50.294;18.644;2023-09-19T19:37:01;16.20;99.90
18648;DHT22;9453;50.294;18.644;2023-09-19T19:39:29;16.10;99.90
18648;DHT22;9453;50.294;18.644;2023-09-19T19:41:57;16.10;99.90
18648;DHT22;9453;50.294;18.644;2023-09-19T19:44:24;16.10;99.90
18648;DHT22;9453;50.294;18.644;2023-09-19T19:46:52;16.20;99.90
18648;DHT22;9453;50.294;18.644;2023-09-19T19:49:19;16.10;99.90
18648;DHT22;9453;50.294;18.644;2023-09-19T19:51:47;16.00;99.90